createdAt,value
2018-05-13T00:00:20.380Z,9.17
2018-05-13T00:02:48.524Z,11.10
2018-05-13T00:05:16.717Z,10.27
2018-05-13T00:07:44.825Z,9.70
2018-05-13T00:10:12.926Z,9.87
2018-05-13T00:12:41.074Z,9.53
2018-05-13T00:15:09.184Z,9.50
2018-05-13T00:17:37.322Z,9.53
2018-05-13T00:20:05.473Z,9.13
2018-05-13T00:22:33.607Z,9.97
2018-05-13T00:25:05.041Z,9.70
2018-05-13T00:27:34.783Z,9.33
2018-05-13T00:30:03.219Z,10.00
2018-05-13T00:32:31.359Z,10.53
2018-05-13T00:34:59.497Z,9.13
2018-05-13T00:37:27.628Z,9.67
2018-05-13T00:39:55.751Z,9.13
2018-05-13T00:42:23.867Z,9.27
2018-05-13T00:44:51.998Z,10.00
2018-05-13T00:47:20.114Z,9.70
2018-05-13T00:49:48.256Z,9.83
2018-05-13T00:52:16.395Z,9.23
2018-05-13T00:54:54.466Z,9.50
2018-05-13T00:57:22.579Z,9.00
2018-05-13T00:59:50.723Z,9.37
2018-05-13T01:02:18.857Z,9.90
2018-05-13T01:04:46.968Z,9.20
2018-05-13T01:07:15.109Z,9.00
2018-05-13T01:09:43.249Z,9.53
2018-05-13T01:12:11.381Z,9.63
2018-05-13T01:14:39.490Z,9.50
2018-05-13T01:17:07.623Z,8.83
2018-05-13T01:19:35.742Z,9.33
2018-05-13T01:22:03.862Z,9.73
2018-05-13T01:24:31.999Z,9.73
2018-05-13T01:27:00.132Z,9.00
2018-05-13T01:29:28.268Z,9.20
2018-05-13T01:31:56.416Z,9.03
2018-05-13T01:34:27.847Z,9.13
2018-05-13T01:36:55.973Z,8.30
2018-05-13T01:39:24.109Z,9.53
2018-05-13T01:41:53.030Z,8.93
2018-05-13T01:44:21.138Z,9.50
2018-05-13T01:46:49.277Z,9.30
2018-05-13T01:49:17.399Z,8.93
2018-05-13T01:51:45.529Z,9.10
2018-05-13T01:54:13.660Z,8.70
2018-05-13T01:56:41.824Z,9.50
2018-05-13T01:59:09.935Z,8.93
2018-05-13T02:01:38.060Z,9.77
2018-05-13T02:04:06.174Z,9.80
2018-05-13T02:06:34.301Z,9.23
2018-05-13T02:09:02.433Z,8.90
2018-05-13T02:11:30.543Z,9.37
2018-05-13T02:13:58.684Z,9.20
2018-05-13T02:16:26.828Z,9.20
2018-05-13T02:18:57.181Z,9.67
2018-05-13T02:21:25.356Z,9.10
2018-05-13T02:23:53.437Z,9.17
2018-05-13T02:26:21.561Z,9.37
2018-05-13T02:28:49.666Z,9.40
2018-05-13T02:31:17.838Z,9.17
2018-05-13T02:33:45.967Z,9.57
2018-05-13T02:36:14.054Z,9.40
2018-05-13T02:38:42.188Z,9.73
2018-05-13T02:41:10.328Z,10.37
2018-05-13T02:43:38.468Z,10.07
2018-05-13T02:46:06.587Z,10.17
2018-05-13T02:48:34.736Z,10.67
2018-05-13T02:51:03.252Z,10.70
2018-05-13T02:53:31.395Z,9.87
2018-05-13T02:55:59.522Z,10.00
2018-05-13T02:58:27.645Z,10.27
2018-05-13T03:00:55.783Z,10.53
2018-05-13T03:03:23.895Z,10.63
2018-05-13T03:05:52.030Z,10.63
2018-05-13T03:08:20.169Z,10.20
2018-05-13T03:10:48.298Z,10.30
2018-05-13T03:13:16.431Z,10.30
2018-05-13T03:15:44.739Z,9.97
2018-05-13T03:18:12.861Z,9.93
2018-05-13T03:20:41.012Z,10.20
2018-05-13T03:23:09.163Z,9.90
2018-05-13T03:25:37.300Z,10.17
2018-05-13T03:28:05.421Z,9.77
2018-05-13T03:30:33.556Z,10.63
2018-05-13T03:33:01.697Z,9.40
2018-05-13T03:35:29.891Z,10.13
2018-05-13T03:37:58.109Z,10.80
2018-05-13T03:40:26.332Z,10.03
2018-05-13T03:42:54.637Z,10.60
2018-05-13T03:45:23.041Z,10.60
2018-05-13T03:47:51.142Z,11.13
2018-05-13T03:50:19.265Z,11.63
2018-05-13T03:52:47.394Z,11.67
2018-05-13T03:55:15.510Z,11.23
2018-05-13T03:57:43.660Z,11.30
2018-05-13T04:00:11.803Z,11.43
2018-05-13T04:02:39.930Z,11.23
2018-05-13T04:05:08.049Z,11.83
2018-05-13T04:07:53.918Z,12.20
2018-05-13T04:10:33.945Z,13.43
2018-05-13T04:13:13.814Z,13.07
2018-05-13T04:15:41.992Z,13.00
2018-05-13T04:18:10.437Z,13.37
2018-05-13T04:20:38.570Z,12.83
2018-05-13T04:23:06.715Z,13.10
2018-05-13T04:25:34.898Z,13.40
2018-05-13T04:28:03.102Z,13.40
2018-05-13T04:30:31.255Z,12.80
2018-05-13T04:33:00.095Z,14.10
2018-05-13T04:35:28.509Z,13.37
2018-05-13T04:37:56.644Z,13.50
2018-05-13T04:40:24.766Z,14.13
2018-05-13T04:42:52.904Z,13.63
2018-05-13T04:45:21.037Z,13.67
2018-05-13T04:47:49.175Z,13.77
2018-05-13T04:50:17.329Z,13.83
2018-05-13T04:52:45.475Z,13.43
2018-05-13T04:55:13.600Z,13.93
2018-05-13T04:57:41.831Z,13.57
2018-05-13T05:00:09.980Z,13.97
2018-05-13T05:02:38.118Z,12.93
2018-05-13T05:05:06.260Z,13.33
2018-05-13T05:07:34.381Z,13.27
2018-05-13T05:10:02.537Z,14.60
2018-05-13T05:12:30.647Z,13.87
2018-05-13T05:14:58.784Z,14.03
2018-05-13T05:17:26.919Z,13.30
2018-05-13T05:19:55.049Z,15.20
2018-05-13T05:22:23.181Z,14.30
2018-05-13T05:24:51.315Z,15.07
2018-05-13T05:27:19.438Z,13.63
2018-05-13T05:29:47.577Z,13.57
2018-05-13T05:32:15.711Z,14.47
2018-05-13T05:34:43.840Z,14.57
2018-05-13T05:37:11.976Z,14.13
2018-05-13T05:39:40.083Z,14.33
2018-05-13T05:42:08.289Z,14.13
2018-05-13T05:44:36.417Z,15.20
2018-05-13T05:47:04.563Z,16.53
2018-05-13T05:49:32.698Z,16.00
2018-05-13T05:52:00.806Z,15.47
2018-05-13T05:54:28.936Z,16.33
2018-05-13T05:56:57.109Z,15.73
2018-05-13T05:59:25.252Z,15.43
2018-05-13T06:01:53.344Z,16.00
2018-05-13T06:04:21.513Z,16.47
2018-05-13T06:06:49.631Z,17.37
2018-05-13T06:09:17.738Z,23.80
2018-05-13T06:11:45.893Z,23.03
2018-05-13T06:14:14.018Z,24.37
2018-05-13T06:16:42.546Z,25.17
2018-05-13T06:19:10.709Z,28.27
2018-05-13T06:21:38.838Z,28.70
2018-05-13T06:24:06.969Z,28.73
2018-05-13T06:26:35.095Z,31.00
2018-05-13T06:29:03.248Z,31.17
2018-05-13T06:31:35.088Z,31.33
2018-05-13T06:34:03.252Z,32.87
2018-05-13T06:36:31.396Z,31.63
2018-05-13T06:38:59.530Z,33.47
2018-05-13T06:41:27.685Z,32.53
2018-05-13T06:43:55.811Z,33.50
2018-05-13T06:46:23.937Z,33.77
2018-05-13T06:48:52.236Z,33.03
2018-05-13T06:51:20.424Z,33.10
2018-05-13T06:53:48.477Z,32.70
2018-05-13T06:56:16.617Z,33.97
2018-05-13T06:58:44.768Z,34.97
2018-05-13T07:01:12.954Z,37.03
2018-05-13T07:03:41.107Z,36.10
2018-05-13T07:06:09.231Z,33.00
2018-05-13T07:08:37.354Z,33.63
2018-05-13T07:11:05.512Z,36.67
2018-05-13T07:13:36.566Z,38.80
2018-05-13T07:16:04.825Z,34.80
2018-05-13T07:18:32.961Z,33.70
2018-05-13T07:21:01.083Z,37.10
2018-05-13T07:23:29.194Z,37.27
2018-05-13T07:25:57.321Z,37.47
2018-05-13T07:28:25.465Z,37.90
2018-05-13T07:30:53.607Z,37.00
2018-05-13T07:33:21.741Z,36.20
2018-05-13T07:35:49.854Z,36.57
2018-05-13T07:38:17.967Z,39.20
2018-05-13T07:40:46.098Z,39.30
2018-05-13T07:43:14.261Z,38.07
2018-05-13T07:45:42.386Z,38.73
2018-05-13T07:48:10.751Z,39.53
2018-05-13T07:50:39.512Z,37.47
2018-05-13T07:53:07.669Z,42.20
2018-05-13T07:55:35.842Z,38.70
2018-05-13T07:58:03.989Z,36.00
2018-05-13T08:00:32.136Z,41.70
2018-05-13T08:03:00.253Z,40.37
2018-05-13T08:05:28.483Z,37.30
2018-05-13T08:07:56.626Z,37.77
2018-05-13T08:10:24.759Z,40.07
2018-05-13T08:12:52.888Z,40.90
2018-05-13T08:15:21.021Z,41.13
2018-05-13T08:17:49.165Z,38.63
2018-05-13T08:20:17.360Z,36.33
2018-05-13T08:22:45.403Z,37.60
2018-05-13T08:25:13.576Z,37.63
2018-05-13T08:27:41.716Z,37.60
2018-05-13T08:30:09.850Z,38.30
2018-05-13T08:32:37.984Z,37.90
2018-05-13T08:35:06.102Z,40.67
2018-05-13T08:37:34.223Z,39.67
2018-05-13T08:40:02.368Z,38.30
2018-05-13T08:42:30.506Z,40.23
2018-05-13T08:44:58.615Z,41.70
2018-05-13T08:47:27.045Z,40.27
2018-05-13T08:49:55.196Z,40.60
2018-05-13T08:52:23.321Z,39.70
2018-05-13T08:54:51.444Z,40.27
2018-05-13T08:57:19.572Z,39.33
2018-05-13T08:59:47.697Z,40.60
2018-05-13T09:02:15.828Z,39.27
2018-05-13T09:04:43.947Z,39.77
2018-05-13T09:07:14.968Z,41.83
2018-05-13T09:09:43.110Z,42.63
2018-05-13T09:12:11.238Z,44.57
2018-05-13T09:14:39.397Z,45.07
2018-05-13T09:17:07.534Z,46.57
2018-05-13T09:19:35.672Z,47.17
2018-05-13T09:22:03.787Z,47.40
2018-05-13T09:24:32.184Z,51.70
2018-05-13T09:27:00.351Z,50.37
2018-05-13T09:29:28.522Z,58.60
2018-05-13T09:31:56.679Z,55.20
2018-05-13T09:34:24.809Z,54.70
2018-05-13T09:36:52.924Z,59.37
2018-05-13T09:39:21.295Z,56.30
2018-05-13T09:41:49.408Z,58.00
2018-05-13T09:44:17.527Z,56.90
2018-05-13T09:46:45.877Z,58.70
2018-05-13T09:49:14.013Z,60.70
2018-05-13T09:51:42.137Z,62.53
2018-05-13T09:54:10.272Z,64.90
2018-05-13T09:56:38.431Z,59.50
2018-05-13T09:59:06.582Z,58.97
2018-05-13T10:01:34.932Z,58.13
2018-05-13T10:04:03.131Z,58.63
2018-05-13T10:06:31.197Z,60.93
2018-05-13T10:08:59.335Z,61.83
2018-05-13T10:11:27.482Z,61.63
2018-05-13T10:13:55.614Z,58.97
2018-05-13T10:16:23.765Z,58.67
2018-05-13T10:18:51.892Z,60.43
2018-05-13T10:21:20.016Z,60.60
2018-05-13T10:23:48.401Z,62.80
2018-05-13T10:26:16.525Z,61.30
2018-05-13T10:28:44.662Z,59.53
2018-05-13T10:31:12.821Z,64.23
2018-05-13T10:33:40.949Z,63.93
2018-05-13T10:36:09.090Z,64.53
2018-05-13T10:38:37.226Z,60.90
2018-05-13T10:41:05.347Z,66.17
2018-05-13T10:43:33.480Z,65.33
2018-05-13T10:46:01.615Z,65.80
2018-05-13T10:48:29.737Z,64.30
2018-05-13T10:50:57.872Z,63.40
2018-05-13T10:53:26.009Z,63.77
2018-05-13T10:55:54.130Z,64.60
2018-05-13T10:58:22.257Z,64.50
2018-05-13T11:00:50.386Z,63.03
2018-05-13T11:03:18.517Z,68.73
2018-05-13T11:05:46.641Z,66.80
2018-05-13T11:08:14.796Z,65.50
2018-05-13T11:10:42.917Z,63.03
2018-05-13T11:13:11.060Z,62.40
2018-05-13T11:15:39.196Z,60.80
2018-05-13T11:18:07.314Z,61.13
2018-05-13T11:20:35.485Z,55.63
2018-05-13T11:23:03.581Z,59.07
2018-05-13T11:25:31.722Z,53.33
2018-05-13T11:27:59.844Z,52.27
2018-05-13T11:30:28.003Z,52.40
2018-05-13T11:32:56.125Z,50.43
2018-05-13T11:35:24.237Z,52.50
2018-05-13T11:37:52.384Z,52.80
2018-05-13T11:40:20.514Z,50.37
2018-05-13T11:42:49.043Z,46.33
2018-05-13T11:45:17.182Z,47.83
2018-05-13T11:47:45.309Z,45.17
2018-05-13T11:50:13.438Z,45.43
2018-05-13T11:52:41.554Z,45.57
2018-05-13T11:55:09.668Z,45.03
2018-05-13T11:57:37.801Z,46.23
2018-05-13T12:00:05.931Z,46.67
2018-05-13T12:02:34.047Z,44.77
2018-05-13T12:05:02.178Z,45.17
2018-05-13T12:07:30.325Z,46.27
2018-05-13T12:09:58.440Z,45.33
2018-05-13T12:12:26.592Z,43.07
2018-05-13T12:14:54.708Z,45.70
2018-05-13T12:17:22.821Z,43.63
2018-05-13T12:19:50.953Z,45.43
2018-05-13T12:22:19.153Z,47.43
2018-05-13T12:24:47.263Z,43.93
2018-05-13T12:27:15.405Z,45.20
2018-05-13T12:29:43.569Z,45.07
2018-05-13T12:32:11.714Z,43.10
2018-05-13T12:34:39.858Z,44.77
2018-05-13T12:37:08.018Z,43.30
2018-05-13T12:39:36.122Z,43.83
2018-05-13T12:42:04.257Z,44.40
2018-05-13T12:44:32.407Z,45.63
2018-05-13T12:47:00.528Z,45.67
2018-05-13T12:49:28.650Z,45.37
2018-05-13T12:51:56.788Z,44.73
2018-05-13T12:54:24.895Z,47.07
2018-05-13T12:56:53.040Z,46.27
2018-05-13T12:59:21.393Z,46.10
2018-05-13T13:01:49.503Z,46.40
2018-05-13T13:04:17.641Z,44.70
2018-05-13T13:06:45.801Z,45.07
2018-05-13T13:09:13.948Z,44.83
2018-05-13T13:11:42.018Z,43.57
2018-05-13T13:14:10.150Z,46.13
2018-05-13T13:16:38.282Z,44.07
2018-05-13T13:19:06.399Z,47.40
2018-05-13T13:21:34.525Z,45.43
2018-05-13T13:24:02.638Z,47.40
2018-05-13T13:26:30.773Z,45.93
2018-05-13T13:28:58.923Z,45.53
2018-05-13T13:31:27.934Z,47.83
2018-05-13T13:33:56.057Z,48.60
2018-05-13T13:36:24.193Z,50.40
2018-05-13T13:38:52.324Z,49.50
2018-05-13T13:41:20.453Z,48.73
2018-05-13T13:43:48.614Z,46.37
2018-05-13T13:46:16.772Z,47.60
2018-05-13T13:48:44.976Z,45.67
2018-05-13T13:51:13.163Z,47.87
2018-05-13T13:53:41.312Z,45.07
2018-05-13T13:56:09.597Z,43.93
2018-05-13T13:58:37.738Z,44.67
2018-05-13T14:01:05.889Z,45.37
2018-05-13T14:03:34.030Z,43.83
2018-05-13T14:06:02.157Z,41.13
2018-05-13T14:08:30.289Z,44.73
2018-05-13T14:10:58.434Z,42.77
2018-05-13T14:13:26.568Z,44.60
2018-05-13T14:15:54.696Z,43.30
2018-05-13T14:18:22.869Z,43.33
2018-05-13T14:20:54.310Z,45.47
2018-05-13T14:23:22.450Z,44.10
2018-05-13T14:25:50.591Z,42.57
2018-05-13T14:28:18.736Z,42.00
2018-05-13T14:30:46.857Z,42.03
2018-05-13T14:33:14.988Z,43.30
2018-05-13T14:35:43.132Z,44.47
2018-05-13T14:38:11.268Z,43.83
2018-05-13T14:40:39.399Z,45.63
2018-05-13T14:43:07.545Z,42.33
2018-05-13T14:45:35.651Z,44.07
2018-05-13T14:48:03.779Z,46.23
2018-05-13T14:50:32.135Z,44.40
2018-05-13T14:53:00.241Z,44.07
2018-05-13T14:55:28.381Z,43.67
2018-05-13T14:57:56.513Z,42.63
2018-05-13T15:00:24.664Z,42.40
2018-05-13T15:02:52.874Z,44.07
2018-05-13T15:05:21.040Z,44.37
2018-05-13T15:07:49.224Z,43.53
2018-05-13T15:10:17.444Z,45.43
2018-05-13T15:12:45.640Z,45.30
2018-05-13T15:15:13.768Z,45.80
2018-05-13T15:17:41.884Z,47.90
2018-05-13T15:20:13.238Z,46.43
2018-05-13T15:22:41.391Z,46.90
2018-05-13T15:25:09.502Z,45.20
2018-05-13T15:27:37.657Z,47.20
2018-05-13T15:30:05.800Z,47.20
2018-05-13T15:32:33.921Z,44.87
2018-05-13T15:35:02.096Z,44.23
2018-05-13T15:37:30.209Z,44.23
2018-05-13T15:39:58.443Z,43.40
2018-05-13T15:42:26.661Z,43.60
2018-05-13T15:44:54.723Z,44.63
2018-05-13T15:47:22.848Z,39.77
2018-05-13T15:49:50.992Z,42.63
2018-05-13T15:52:19.105Z,40.63
2018-05-13T15:54:47.289Z,41.00
2018-05-13T15:57:15.429Z,41.90
2018-05-13T15:59:43.559Z,37.40
2018-05-13T16:02:12.585Z,38.47
2018-05-13T16:04:40.699Z,39.97
2018-05-13T16:07:08.953Z,39.90
2018-05-13T16:09:37.060Z,41.20
2018-05-13T16:12:05.240Z,38.33
2018-05-13T16:14:33.371Z,41.40
2018-05-13T16:17:01.497Z,41.13
2018-05-13T16:19:29.651Z,42.37
2018-05-13T16:21:57.773Z,41.10
2018-05-13T16:24:25.928Z,42.17
2018-05-13T16:26:54.232Z,42.90
2018-05-13T16:29:22.391Z,40.87
2018-05-13T16:31:50.517Z,42.90
2018-05-13T16:34:18.661Z,42.23
2018-05-13T16:36:46.789Z,43.50
2018-05-13T16:39:14.898Z,43.60
2018-05-13T16:41:43.019Z,40.97
2018-05-13T16:44:11.139Z,40.17
2018-05-13T16:46:39.274Z,42.53
2018-05-13T16:49:07.410Z,41.23
2018-05-13T16:51:35.542Z,42.13
2018-05-13T16:54:06.939Z,41.63
2018-05-13T16:56:35.058Z,43.17
2018-05-13T16:59:06.969Z,41.30
2018-05-13T17:01:35.134Z,43.27
2018-05-13T17:04:03.223Z,40.87
2018-05-13T17:06:31.378Z,41.60
2018-05-13T17:08:59.502Z,42.80
2018-05-13T17:11:27.637Z,40.83
2018-05-13T17:13:55.770Z,42.43
2018-05-13T17:16:23.882Z,45.17
2018-05-13T17:18:52.295Z,45.90
2018-05-13T17:21:20.423Z,46.47
2018-05-13T17:23:48.541Z,41.63
2018-05-13T17:26:16.660Z,44.47
2018-05-13T17:28:44.793Z,42.50
2018-05-13T17:31:12.902Z,43.87
2018-05-13T17:33:41.038Z,43.07
2018-05-13T17:36:09.170Z,42.73
2018-05-13T17:38:37.303Z,44.37
2018-05-13T17:41:05.427Z,42.80
2018-05-13T17:43:33.563Z,45.67
2018-05-13T17:46:01.728Z,46.13
2018-05-13T17:48:29.875Z,44.83
2018-05-13T17:50:57.991Z,43.77
2018-05-13T17:53:26.117Z,51.00
2018-05-13T17:55:54.271Z,47.57
2018-05-13T17:58:22.379Z,47.63
2018-05-13T18:00:50.586Z,46.27
2018-05-13T18:03:18.750Z,50.03
2018-05-13T18:05:46.792Z,46.93
2018-05-13T18:08:14.931Z,46.43
2018-05-13T18:10:43.069Z,46.80
2018-05-13T18:13:11.205Z,47.33
2018-05-13T18:15:39.335Z,47.80
2018-05-13T18:18:07.473Z,45.80
2018-05-13T18:20:35.633Z,45.60
2018-05-13T18:23:03.762Z,47.03
2018-05-13T18:25:31.904Z,46.40
2018-05-13T18:27:59.999Z,47.93
2018-05-13T18:30:28.115Z,48.77
2018-05-13T18:32:56.557Z,46.03
2018-05-13T18:35:24.671Z,48.67
2018-05-13T18:37:52.815Z,48.70
2018-05-13T18:40:20.936Z,47.57
2018-05-13T18:42:49.083Z,48.87
2018-05-13T18:45:19.241Z,52.43
2018-05-13T18:47:47.417Z,48.20
2018-05-13T18:50:15.545Z,48.53
2018-05-13T18:52:43.648Z,49.10
2018-05-13T18:55:11.833Z,48.93
2018-05-13T18:57:39.959Z,49.80
2018-05-13T19:00:08.102Z,48.90
2018-05-13T19:02:36.946Z,48.13
2018-05-13T19:05:05.072Z,44.27
2018-05-13T19:07:33.183Z,44.23
2018-05-13T19:10:01.331Z,40.53
2018-05-13T19:12:29.456Z,38.30
2018-05-13T19:14:57.611Z,38.43
2018-05-13T19:17:25.756Z,38.07
2018-05-13T19:19:53.889Z,36.67
2018-05-13T19:22:22.011Z,38.50
2018-05-13T19:24:50.204Z,39.33
2018-05-13T19:27:18.260Z,39.50
2018-05-13T19:29:46.412Z,38.47
2018-05-13T19:32:14.549Z,40.70
2018-05-13T19:34:42.663Z,41.20
2018-05-13T19:37:10.784Z,39.07
2018-05-13T19:39:39.152Z,39.73
2018-05-13T19:42:07.283Z,41.00
2018-05-13T19:44:35.427Z,42.57
2018-05-13T19:47:03.570Z,41.67
2018-05-13T19:49:31.705Z,41.97
2018-05-13T19:51:59.844Z,42.37
2018-05-13T19:54:28.010Z,43.57
2018-05-13T19:56:56.130Z,42.23
2018-05-13T19:59:24.254Z,45.87
2018-05-13T20:01:53.080Z,43.93
2018-05-13T20:04:21.183Z,43.30
2018-05-13T20:06:49.325Z,43.93
2018-05-13T20:09:17.563Z,42.40
2018-05-13T20:11:45.630Z,43.70
2018-05-13T20:14:13.765Z,41.80
2018-05-13T20:16:41.930Z,43.60
2018-05-13T20:19:10.093Z,44.07
2018-05-13T20:21:38.229Z,43.43
2018-05-13T20:24:06.376Z,43.77
2018-05-13T20:26:34.508Z,43.30
2018-05-13T20:29:02.615Z,44.67
2018-05-13T20:31:33.971Z,45.03
2018-05-13T20:34:02.111Z,44.80
2018-05-13T20:36:30.222Z,42.97
2018-05-13T20:38:58.350Z,42.63
2018-05-13T20:41:26.495Z,44.10
2018-05-13T20:43:54.617Z,41.97
2018-05-13T20:46:22.754Z,43.57
2018-05-13T20:48:50.936Z,44.13
2018-05-13T20:51:19.214Z,43.60
2018-05-13T20:53:47.265Z,45.10
2018-05-13T20:56:15.432Z,44.43
2018-05-13T20:58:43.636Z,43.40
2018-05-13T21:01:11.834Z,45.73
2018-05-13T21:03:40.039Z,45.93
2018-05-13T21:06:08.162Z,47.83
2018-05-13T21:08:36.307Z,48.60
2018-05-13T21:11:04.418Z,49.43
2018-05-13T21:13:32.545Z,49.20
2018-05-13T21:16:00.741Z,45.23
2018-05-13T21:18:28.818Z,46.30
2018-05-13T21:20:56.956Z,48.60
2018-05-13T21:23:25.306Z,49.20
2018-05-13T21:25:53.441Z,48.83
2018-05-13T21:28:21.561Z,49.90
2018-05-13T21:30:49.786Z,49.93
2018-05-13T21:33:17.897Z,51.60
2018-05-13T21:35:46.011Z,52.33
2018-05-13T21:38:14.139Z,53.80
2018-05-13T21:40:42.280Z,54.43
2018-05-13T21:43:10.421Z,55.23
2018-05-13T21:45:38.601Z,55.97
2018-05-13T21:48:06.724Z,55.77
2018-05-13T21:50:34.863Z,56.03
2018-05-13T21:53:03.005Z,58.67
2018-05-13T21:55:31.140Z,60.90
2018-05-13T21:57:59.279Z,56.53
2018-05-13T22:00:27.410Z,55.23
2018-05-13T22:02:55.548Z,52.47
2018-05-13T22:05:23.689Z,48.93
2018-05-13T22:07:51.857Z,48.43
2018-05-13T22:10:19.955Z,49.07
2018-05-13T22:12:48.084Z,49.90
2018-05-13T22:15:16.221Z,47.60
2018-05-13T22:17:44.364Z,49.10
2018-05-13T22:20:12.486Z,50.10
2018-05-13T22:22:40.656Z,52.63
2018-05-13T22:25:08.755Z,52.80
2018-05-13T22:27:37.057Z,50.00
2018-05-13T22:30:05.204Z,50.63
2018-05-13T22:32:33.350Z,54.40
2018-05-13T22:35:01.469Z,52.33
2018-05-13T22:37:29.613Z,56.43
2018-05-13T22:39:57.724Z,60.97
2018-05-13T22:42:25.888Z,61.40
2018-05-13T22:44:54.054Z,60.83
2018-05-13T22:47:22.214Z,61.07
2018-05-13T22:49:50.325Z,66.20
2018-05-13T22:52:18.544Z,65.60
2018-05-13T22:54:46.602Z,63.73
2018-05-13T22:57:14.750Z,67.80
2018-05-13T22:59:42.889Z,65.70
2018-05-13T23:02:11.040Z,65.80
2018-05-13T23:04:39.150Z,64.13
2018-05-13T23:07:07.297Z,66.97
2018-05-13T23:09:35.415Z,68.50
2018-05-13T23:12:03.551Z,66.27
2018-05-13T23:14:31.919Z,69.33
2018-05-13T23:17:00.038Z,66.97
2018-05-13T23:19:28.172Z,68.93
2018-05-13T23:21:56.311Z,70.60
2018-05-13T23:24:24.445Z,66.37
2018-05-13T23:26:52.572Z,67.30
2018-05-13T23:29:20.990Z,68.30
2018-05-13T23:31:49.147Z,65.10
2018-05-13T23:34:17.292Z,59.33
2018-05-13T23:36:45.433Z,59.53
2018-05-13T23:39:13.666Z,63.00
2018-05-13T23:41:41.793Z,62.13
2018-05-13T23:44:09.941Z,60.17
2018-05-13T23:46:38.083Z,60.77
2018-05-13T23:49:06.235Z,56.33
2018-05-13T23:51:34.462Z,55.00
2018-05-13T23:54:02.521Z,53.90
2018-05-13T23:56:30.662Z,51.93
2018-05-13T23:58:58.778Z,52.83
